createdAt,value
2019-06-08T00:02:23.011Z,83.68
2019-06-08T00:04:52.741Z,83.78
2019-06-08T00:07:23.079Z,83.71
2019-06-08T00:09:52.947Z,83.96
2019-06-08T00:12:23.243Z,83.94
2019-06-08T00:14:52.975Z,84.01
2019-06-08T00:17:35.819Z,84.25
2019-06-08T00:19:54.079Z,84.46
2019-06-08T00:22:23.992Z,84.62
2019-06-08T00:24:53.810Z,84.62
2019-06-08T00:27:24.613Z,84.54
2019-06-08T00:29:54.369Z,84.43
2019-06-08T00:32:25.103Z,84.71
2019-06-08T00:34:54.757Z,84.68
2019-06-08T00:37:24.987Z,85.07
2019-06-08T00:39:54.705Z,85.19
2019-06-08T00:42:25.628Z,85.39
2019-06-08T00:44:55.383Z,85.35
2019-06-08T00:47:25.018Z,85.32
2019-06-08T00:49:54.674Z,85.52
2019-06-08T00:52:25.578Z,85.65
2019-06-08T00:54:56.475Z,85.77
2019-06-08T00:57:26.296Z,86.01
2019-06-08T00:59:55.957Z,86.22
2019-06-08T01:02:26.780Z,86.47
2019-06-08T01:04:56.623Z,86.38
2019-06-08T01:07:26.390Z,86.26
2019-06-08T01:09:56.066Z,86.25
2019-06-08T01:12:26.813Z,85.73
2019-06-08T01:14:56.625Z,86.02
2019-06-08T01:17:27.536Z,86.00
2019-06-08T01:19:57.294Z,86.15
2019-06-08T01:22:27.735Z,86.32
2019-06-08T01:24:57.537Z,86.37
2019-06-08T01:27:28.194Z,86.32
2019-06-08T01:29:58.035Z,86.33
2019-06-08T01:32:28.561Z,86.36
2019-06-08T01:34:59.319Z,86.37
2019-06-08T01:37:31.156Z,86.22
2019-06-08T01:40:00.990Z,86.20
2019-06-08T01:42:31.888Z,86.04
2019-06-08T01:45:01.755Z,86.18
2019-06-08T01:47:32.589Z,86.03
2019-06-08T01:50:02.237Z,85.89
2019-06-08T01:52:33.003Z,85.98
2019-06-08T01:55:05.463Z,85.98
2019-06-08T01:57:35.097Z,85.88
2019-06-08T02:00:29.246Z,85.37
2019-06-08T02:02:40.258Z,84.66
2019-06-08T02:05:10.126Z,84.56
2019-06-08T02:07:39.755Z,84.48
2019-06-08T02:10:09.795Z,84.40
2019-06-08T02:12:39.451Z,84.34
2019-06-08T02:15:09.579Z,84.53
2019-06-08T02:17:39.236Z,83.72
2019-06-08T02:20:10.858Z,83.50
2019-06-08T02:22:40.509Z,83.21
2019-06-08T02:25:10.246Z,83.28
2019-06-08T02:27:39.883Z,83.57
2019-06-08T02:30:11.589Z,83.55
2019-06-08T02:32:41.205Z,83.58
2019-06-08T02:35:10.947Z,82.98
2019-06-08T02:37:40.722Z,82.78
2019-06-08T02:40:12.099Z,82.72
2019-06-08T02:42:41.739Z,82.59
2019-06-08T02:45:11.872Z,82.48
2019-06-08T02:47:41.502Z,82.68
2019-06-08T02:50:12.654Z,82.83
2019-06-08T02:52:44.454Z,82.44
2019-06-08T02:55:14.104Z,82.19
2019-06-08T02:57:45.935Z,82.41
2019-06-08T03:00:16.220Z,82.25
2019-06-08T03:02:47.744Z,82.82
2019-06-08T03:05:17.377Z,82.30
2019-06-08T03:07:50.235Z,82.39
2019-06-08T03:10:19.869Z,82.11
2019-06-08T03:12:52.460Z,82.37
2019-06-08T03:15:32.434Z,82.10
2019-06-08T03:18:01.610Z,81.41
2019-06-08T03:20:31.659Z,81.53
2019-06-08T03:23:02.673Z,81.34
2019-06-08T03:25:35.284Z,81.63
2019-06-08T03:28:03.659Z,81.69
2019-06-08T03:30:35.263Z,81.63
2019-06-08T03:33:04.689Z,81.31
2019-06-08T03:35:36.367Z,81.53
2019-06-08T03:38:05.846Z,81.31
2019-06-08T03:40:35.857Z,80.83
2019-06-08T03:43:05.647Z,81.55
2019-06-08T03:45:36.360Z,81.59
2019-06-08T03:48:06.031Z,81.85
2019-06-08T03:50:37.465Z,82.10
2019-06-08T03:53:07.041Z,82.03
2019-06-08T03:55:37.979Z,82.41
2019-06-08T03:58:10.439Z,82.66
2019-06-08T04:00:40.461Z,82.93
2019-06-08T04:03:10.243Z,83.29
2019-06-08T04:05:40.844Z,83.45
2019-06-08T04:08:11.258Z,83.56
2019-06-08T04:10:42.100Z,83.49
2019-06-08T04:13:12.356Z,83.44
2019-06-08T04:15:42.607Z,83.60
2019-06-08T04:18:13.307Z,83.77
2019-06-08T04:20:45.773Z,83.75
2019-06-08T04:23:14.301Z,83.71
2019-06-08T04:25:45.110Z,84.02
2019-06-08T04:28:15.211Z,84.09
2019-06-08T04:30:45.323Z,84.27
2019-06-08T04:33:16.155Z,84.20
2019-06-08T04:35:47.206Z,84.19
2019-06-08T04:38:17.114Z,84.47
2019-06-08T04:40:48.506Z,84.69
2019-06-08T04:43:18.089Z,84.50
2019-06-08T04:45:49.778Z,84.52
2019-06-08T04:48:19.148Z,84.29
2019-06-08T04:50:49.811Z,84.39
2019-06-08T04:53:19.579Z,84.39
2019-06-08T04:55:49.472Z,84.40
2019-06-08T04:58:19.247Z,84.15
2019-06-08T05:00:50.783Z,84.08
2019-06-08T05:03:20.243Z,84.36
2019-06-08T05:05:50.272Z,84.33
2019-06-08T05:08:21.001Z,84.74
2019-06-08T05:10:50.625Z,84.81
2019-06-08T05:13:20.270Z,84.86
2019-06-08T05:15:50.393Z,84.95
2019-06-08T05:18:21.136Z,84.74
2019-06-08T05:20:51.493Z,84.46
2019-06-08T05:23:21.323Z,84.00
2019-06-08T05:25:51.011Z,83.86
2019-06-08T05:28:20.647Z,83.50
2019-06-08T05:30:50.306Z,83.57
2019-06-08T05:33:19.965Z,82.77
2019-06-08T05:35:49.840Z,82.54
2019-06-08T05:38:19.518Z,82.49
2019-06-08T05:40:49.905Z,82.48
2019-06-08T05:43:19.640Z,82.13
2019-06-08T05:45:49.957Z,81.55
2019-06-08T05:48:19.689Z,82.05
2019-06-08T05:51:00.427Z,82.20
2019-06-08T05:53:21.334Z,81.43
2019-06-08T05:55:51.011Z,81.68
2019-06-08T05:58:20.647Z,80.74
2019-06-08T06:00:50.657Z,81.46
2019-06-08T06:03:20.559Z,81.37
2019-06-08T06:05:50.802Z,81.21
2019-06-08T06:08:21.423Z,81.86
2019-06-08T06:10:51.426Z,81.59
2019-06-08T06:13:21.167Z,80.88
2019-06-08T06:15:51.732Z,81.42
2019-06-08T06:18:22.463Z,81.63
2019-06-08T06:20:52.060Z,80.78
2019-06-08T06:23:22.319Z,81.10
2019-06-08T06:25:51.972Z,81.10
2019-06-08T06:28:21.612Z,81.46
2019-06-08T06:30:52.220Z,80.91
2019-06-08T06:33:23.013Z,81.05
2019-06-08T06:35:52.643Z,81.26
2019-06-08T06:38:23.310Z,81.02
2019-06-08T06:40:52.952Z,80.43
2019-06-08T06:43:22.782Z,80.90
2019-06-08T06:45:52.439Z,80.79
2019-06-08T06:48:23.578Z,80.56
2019-06-08T06:50:53.694Z,80.96
2019-06-08T06:53:23.326Z,80.08
2019-06-08T06:55:53.424Z,80.38
2019-06-08T06:58:23.285Z,80.13
2019-06-08T07:00:53.707Z,80.42
2019-06-08T07:03:23.620Z,80.32
2019-06-08T07:05:54.261Z,79.18
2019-06-08T07:08:23.992Z,79.06
2019-06-08T07:10:54.776Z,78.28
2019-06-08T07:13:24.921Z,77.80
2019-06-08T07:15:58.002Z,77.12
2019-06-08T07:18:25.905Z,76.81
2019-06-08T07:20:55.544Z,75.90
2019-06-08T07:23:25.172Z,75.49
2019-06-08T07:25:54.838Z,75.58
2019-06-08T07:28:24.664Z,75.38
2019-06-08T07:30:54.899Z,75.54
2019-06-08T07:33:24.619Z,75.80
2019-06-08T07:35:55.297Z,73.33
2019-06-08T07:38:25.098Z,73.80
2019-06-08T07:40:58.476Z,73.51
2019-06-08T07:43:26.123Z,74.31
2019-06-08T07:45:56.282Z,74.19
2019-06-08T07:48:26.097Z,73.82
2019-06-08T07:50:56.440Z,73.02
2019-06-08T07:53:26.254Z,73.03
2019-06-08T07:55:56.357Z,71.79
2019-06-08T07:58:26.127Z,71.84
2019-06-08T08:01:02.621Z,71.92
2019-06-08T08:03:27.201Z,72.33
2019-06-08T08:05:56.846Z,71.63
2019-06-08T08:08:26.476Z,71.81
2019-06-08T08:10:56.704Z,70.85
2019-06-08T08:13:26.788Z,71.59
2019-06-08T08:15:58.664Z,70.75
2019-06-08T08:18:27.903Z,70.61
2019-06-08T08:20:59.214Z,70.27
2019-06-08T08:23:28.975Z,70.43
2019-06-08T08:26:01.363Z,70.42
2019-06-08T08:28:29.967Z,70.57
2019-06-08T08:31:01.677Z,69.54
2019-06-08T08:33:30.970Z,70.22
2019-06-08T08:36:01.979Z,70.05
2019-06-08T08:38:31.815Z,69.82
2019-06-08T08:41:07.191Z,69.58
2019-06-08T08:43:32.851Z,70.25
2019-06-08T08:46:02.508Z,69.96
2019-06-08T08:48:33.323Z,69.86
2019-06-08T08:51:03.617Z,68.83
2019-06-08T08:53:33.600Z,69.20
2019-06-08T08:56:03.255Z,68.83
2019-06-08T08:58:32.887Z,69.35
2019-06-08T09:01:03.696Z,69.79
2019-06-08T09:03:33.998Z,69.80
2019-06-08T09:06:04.165Z,69.33
2019-06-08T09:08:34.039Z,68.90
2019-06-08T09:11:04.073Z,68.70
2019-06-08T09:13:33.905Z,68.39
2019-06-08T09:16:04.378Z,68.69
2019-06-08T09:18:34.287Z,68.82
2019-06-08T09:21:04.390Z,69.00
2019-06-08T09:23:34.250Z,68.20
2019-06-08T09:26:08.995Z,67.54
2019-06-08T09:28:35.235Z,67.37
2019-06-08T09:31:08.268Z,67.19
2019-06-08T09:33:38.815Z,66.47
2019-06-08T09:36:08.664Z,64.12
2019-06-08T09:38:39.915Z,65.41
2019-06-08T09:41:09.546Z,64.22
2019-06-08T09:43:39.210Z,63.64
2019-06-08T09:46:09.470Z,64.50
2019-06-08T09:48:39.153Z,63.25
2019-06-08T09:51:09.304Z,62.92
2019-06-08T09:53:41.715Z,63.01
2019-06-08T09:56:10.616Z,63.44
2019-06-08T09:58:40.317Z,64.38
2019-06-08T10:01:12.255Z,65.33
2019-06-08T10:03:41.469Z,65.07
2019-06-08T10:06:12.597Z,63.78
2019-06-08T10:08:42.567Z,62.50
2019-06-08T10:11:12.257Z,62.05
2019-06-08T10:13:43.416Z,62.58
2019-06-08T10:16:13.405Z,62.52
2019-06-08T10:18:43.104Z,62.74
2019-06-08T10:21:12.774Z,62.41
2019-06-08T10:23:42.449Z,62.40
2019-06-08T10:26:12.369Z,61.50
2019-06-08T10:28:42.014Z,61.51
2019-06-08T10:31:11.711Z,62.00
2019-06-08T10:33:42.428Z,62.32
2019-06-08T10:36:13.008Z,62.51
2019-06-08T10:38:42.961Z,62.31
2019-06-08T10:41:20.897Z,62.42
2019-06-08T10:43:44.063Z,61.02
2019-06-08T10:46:17.213Z,60.16
2019-06-08T10:48:45.045Z,60.79
2019-06-08T10:51:14.719Z,62.36
2019-06-08T10:53:49.322Z,63.14
2019-06-08T10:56:15.830Z,64.49
2019-06-08T10:58:49.486Z,63.83
2019-06-08T11:01:18.776Z,63.41
2019-06-08T11:03:48.867Z,61.71
2019-06-08T11:06:19.017Z,61.79
2019-06-08T11:08:49.769Z,61.93
2019-06-08T11:11:20.493Z,61.60
2019-06-08T11:13:50.682Z,60.95
2019-06-08T11:16:20.267Z,61.36
2019-06-08T11:18:51.154Z,60.85
2019-06-08T11:21:21.035Z,61.66
2019-06-08T11:24:05.627Z,63.10
2019-06-08T11:26:24.434Z,65.60
2019-06-08T11:28:53.451Z,68.91
2019-06-08T11:31:23.116Z,71.13
2019-06-08T11:33:52.784Z,72.05
2019-06-08T11:36:22.419Z,71.25
2019-06-08T11:38:52.114Z,69.76
2019-06-08T11:41:22.933Z,66.92
2019-06-08T11:43:52.688Z,63.56
2019-06-08T11:46:22.395Z,59.74
2019-06-08T11:48:52.045Z,59.77
2019-06-08T11:51:21.722Z,59.79
2019-06-08T11:53:52.619Z,56.92
2019-06-08T11:56:22.583Z,56.12
2019-06-08T11:58:52.923Z,56.77
2019-06-08T12:01:24.453Z,59.10
2019-06-08T12:03:54.091Z,59.97
2019-06-08T12:06:23.762Z,60.46
2019-06-08T12:08:53.396Z,61.35
2019-06-08T12:11:23.296Z,60.14
2019-06-08T12:13:53.132Z,59.92
2019-06-08T12:16:22.765Z,58.58
2019-06-08T12:18:52.442Z,58.78
2019-06-08T12:21:22.101Z,59.19
2019-06-08T12:23:51.737Z,58.85
2019-06-08T12:26:21.394Z,58.54
2019-06-08T12:28:51.028Z,60.37
2019-06-08T12:31:22.685Z,61.79
2019-06-08T12:33:52.013Z,62.20
2019-06-08T12:36:22.768Z,62.42
2019-06-08T12:38:52.426Z,60.69
2019-06-08T12:41:22.065Z,60.24
2019-06-08T12:43:51.700Z,59.43
2019-06-08T12:46:21.632Z,57.58
2019-06-08T12:48:51.291Z,56.88
2019-06-08T12:51:21.480Z,57.06
2019-06-08T12:53:51.460Z,57.45
2019-06-08T12:56:23.986Z,58.36
2019-06-08T12:58:52.449Z,57.18
2019-06-08T13:01:23.181Z,56.24
2019-06-08T13:03:52.844Z,55.08
2019-06-08T13:06:22.472Z,54.45
2019-06-08T13:08:52.103Z,55.02
2019-06-08T13:11:21.763Z,55.38
2019-06-08T13:13:51.400Z,55.45
2019-06-08T13:16:24.171Z,54.56
2019-06-08T13:18:52.409Z,53.20
2019-06-08T13:21:34.207Z,52.30
2019-06-08T13:23:53.293Z,53.58
2019-06-08T13:26:27.866Z,52.66
2019-06-08T13:28:54.282Z,50.72
2019-06-08T13:31:24.741Z,50.63
2019-06-08T13:33:54.554Z,49.70
2019-06-08T13:36:27.191Z,49.30
2019-06-08T13:38:55.528Z,48.80
2019-06-08T13:41:29.014Z,48.12
2019-06-08T13:43:58.103Z,47.13
2019-06-08T13:46:28.308Z,45.68
2019-06-08T13:48:58.683Z,45.33
2019-06-08T13:51:28.852Z,45.41
2019-06-08T13:53:58.513Z,45.31
2019-06-08T13:56:28.612Z,46.22
2019-06-08T13:58:58.395Z,46.05
2019-06-08T14:01:30.797Z,46.17
2019-06-08T14:03:59.384Z,46.09
2019-06-08T14:06:29.020Z,46.40
2019-06-08T14:08:59.164Z,45.74
2019-06-08T14:11:28.815Z,45.41
2019-06-08T14:14:01.344Z,46.80
2019-06-08T14:16:29.934Z,46.72
2019-06-08T14:18:59.635Z,47.42
2019-06-08T14:21:37.810Z,48.17
2019-06-08T14:24:00.704Z,48.74
2019-06-08T14:26:30.339Z,49.61
2019-06-08T14:29:01.611Z,50.68
2019-06-08T14:31:32.169Z,51.42
2019-06-08T14:34:01.964Z,52.56
2019-06-08T14:36:31.626Z,53.04
2019-06-08T14:39:02.494Z,53.65
2019-06-08T14:41:33.907Z,54.27
2019-06-08T14:44:03.551Z,55.23
2019-06-08T14:46:33.181Z,56.06
2019-06-08T14:49:02.839Z,55.89
2019-06-08T14:51:48.906Z,56.09
2019-06-08T14:54:23.543Z,56.22
2019-06-08T14:56:51.288Z,56.88
2019-06-08T14:59:22.041Z,57.55
2019-06-08T15:01:52.279Z,57.75
2019-06-08T15:04:24.930Z,58.19
2019-06-08T15:06:53.272Z,60.18
2019-06-08T15:09:23.479Z,60.91
2019-06-08T15:11:53.286Z,59.39
2019-06-08T15:14:23.705Z,55.46
2019-06-08T15:16:53.497Z,52.32
2019-06-08T15:19:24.335Z,46.79
2019-06-08T15:21:54.196Z,46.29
2019-06-08T15:24:24.647Z,46.79
2019-06-08T15:26:54.373Z,46.46
2019-06-08T15:29:24.958Z,45.62
2019-06-08T15:31:54.653Z,44.52
2019-06-08T15:34:25.232Z,43.32
2019-06-08T15:36:57.447Z,44.17
2019-06-08T15:39:30.375Z,44.80
2019-06-08T15:42:00.021Z,48.17
2019-06-08T15:44:30.396Z,53.04
2019-06-08T15:47:00.391Z,54.61
2019-06-08T15:49:32.674Z,55.66
2019-06-08T15:52:02.481Z,55.73
2019-06-08T15:54:36.201Z,56.86
2019-06-08T15:57:03.470Z,57.54
2019-06-08T15:59:40.772Z,57.82
2019-06-08T16:02:05.682Z,58.27
2019-06-08T16:04:35.321Z,59.02
2019-06-08T16:07:05.651Z,59.86
2019-06-08T16:09:35.440Z,60.28
2019-06-08T16:12:05.477Z,60.21
2019-06-08T16:14:35.108Z,59.45
2019-06-08T16:17:04.759Z,58.93
2019-06-08T16:19:35.860Z,58.87
2019-06-08T16:22:05.745Z,59.13
2019-06-08T16:24:36.508Z,58.16
2019-06-08T16:27:06.112Z,58.35
2019-06-08T16:29:35.750Z,57.82
2019-06-08T16:32:05.402Z,58.21
2019-06-08T16:34:35.624Z,58.12
2019-06-08T16:37:05.572Z,57.50
2019-06-08T16:39:35.267Z,57.10
2019-06-08T16:42:04.958Z,57.65
2019-06-08T16:44:34.849Z,58.32
2019-06-08T16:47:04.838Z,58.26
2019-06-08T16:49:35.420Z,57.74
2019-06-08T16:52:05.218Z,57.95
2019-06-08T16:54:35.080Z,57.64
2019-06-08T16:57:10.598Z,57.56
2019-06-08T16:59:38.574Z,58.63
2019-06-08T17:02:09.839Z,59.44
2019-06-08T17:04:39.442Z,59.46
2019-06-08T17:07:09.074Z,58.70
2019-06-08T17:09:39.908Z,57.99
2019-06-08T17:12:09.780Z,57.94
2019-06-08T17:14:40.643Z,58.46
2019-06-08T17:17:10.550Z,59.25
2019-06-08T17:19:40.414Z,60.11
2019-06-08T17:22:10.156Z,59.80
2019-06-08T17:24:40.744Z,59.98
2019-06-08T17:27:25.774Z,59.78
2019-06-08T17:29:41.968Z,60.08
2019-06-08T17:32:12.604Z,59.79
2019-06-08T17:34:42.507Z,59.11
2019-06-08T17:37:12.192Z,59.02
2019-06-08T17:39:42.244Z,58.84
2019-06-08T17:42:13.687Z,59.32
2019-06-08T17:44:43.339Z,59.59
2019-06-08T17:47:12.978Z,59.74
2019-06-08T17:49:43.383Z,59.81
2019-06-08T17:52:13.139Z,60.01
2019-06-08T17:54:43.315Z,60.10
2019-06-08T17:57:13.156Z,60.21
2019-06-08T17:59:42.804Z,60.29
2019-06-08T18:02:18.081Z,60.32
2019-06-08T18:04:44.517Z,60.43
2019-06-08T18:07:14.187Z,60.56
2019-06-08T18:09:44.826Z,60.55
2019-06-08T18:12:14.852Z,60.89
2019-06-08T18:14:45.239Z,61.32
2019-06-08T18:17:17.722Z,61.62
2019-06-08T18:19:49.625Z,61.95
2019-06-08T18:22:18.873Z,62.05
2019-06-08T18:24:48.615Z,62.35
2019-06-08T18:27:18.387Z,62.55
2019-06-08T18:29:48.838Z,62.69
2019-06-08T18:32:19.748Z,62.96
2019-06-08T18:34:49.395Z,63.28
2019-06-08T18:37:19.027Z,63.50
2019-06-08T18:39:49.365Z,63.71
2019-06-08T18:42:21.552Z,63.91
2019-06-08T18:44:51.190Z,63.91
2019-06-08T18:47:20.854Z,64.08
2019-06-08T18:49:50.491Z,64.28
2019-06-08T18:52:20.133Z,64.43
2019-06-08T18:54:49.982Z,64.58
2019-06-08T18:57:19.703Z,64.24
2019-06-08T18:59:53.073Z,64.05
2019-06-08T19:02:22.007Z,64.13
2019-06-08T19:04:51.646Z,64.06
2019-06-08T19:07:21.476Z,64.08
2019-06-08T19:09:51.571Z,64.24
2019-06-08T19:12:21.211Z,65.05
2019-06-08T19:14:52.355Z,65.34
2019-06-08T19:17:22.309Z,65.21
2019-06-08T19:19:52.550Z,65.18
2019-06-08T19:22:22.459Z,65.49
2019-06-08T19:24:52.112Z,65.84
2019-06-08T19:27:21.752Z,65.89
2019-06-08T19:29:52.434Z,66.06
2019-06-08T19:32:22.238Z,66.10
2019-06-08T19:34:53.959Z,66.26
2019-06-08T19:37:23.233Z,66.35
2019-06-08T19:39:52.896Z,66.37
2019-06-08T19:42:35.658Z,66.12
2019-06-08T19:45:01.120Z,66.18
2019-06-08T19:47:27.587Z,66.24
2019-06-08T19:49:57.917Z,66.38
2019-06-08T19:52:27.613Z,66.73
2019-06-08T19:54:58.068Z,66.83
2019-06-08T19:57:28.382Z,67.03
2019-06-08T20:00:00.378Z,67.14
2019-06-08T20:02:29.538Z,67.26
2019-06-08T20:04:59.155Z,67.14
2019-06-08T20:07:28.763Z,67.19
2019-06-08T20:09:58.530Z,67.13
2019-06-08T20:12:28.349Z,67.11
2019-06-08T20:14:58.103Z,67.12
2019-06-08T20:17:28.437Z,67.13
2019-06-08T20:19:58.534Z,67.16
2019-06-08T20:22:28.354Z,67.35
2019-06-08T20:24:58.057Z,67.56
2019-06-08T20:27:27.855Z,67.74
2019-06-08T20:29:58.234Z,67.88
2019-06-08T20:32:28.319Z,68.02
2019-06-08T20:34:58.202Z,68.30
2019-06-08T20:37:28.443Z,68.50
2019-06-08T20:40:09.781Z,68.56
2019-06-08T20:42:30.819Z,68.65
2019-06-08T20:45:00.693Z,68.95
2019-06-08T20:47:31.797Z,69.20
2019-06-08T20:50:01.509Z,69.63
2019-06-08T20:52:31.204Z,70.22
2019-06-08T20:55:00.841Z,70.58
2019-06-08T20:57:30.495Z,70.57
2019-06-08T21:00:00.159Z,70.76
2019-06-08T21:02:29.799Z,70.96
2019-06-08T21:04:59.726Z,71.10
2019-06-08T21:07:29.489Z,71.42
2019-06-08T21:09:59.239Z,71.50
2019-06-08T21:12:28.906Z,71.69
2019-06-08T21:14:58.537Z,71.73
2019-06-08T21:17:28.167Z,71.94
2019-06-08T21:19:58.106Z,72.14
2019-06-08T21:22:28.000Z,72.48
2019-06-08T21:24:59.887Z,72.45
2019-06-08T21:27:29.051Z,72.42
2019-06-08T21:30:06.743Z,72.88
2019-06-08T21:32:30.092Z,72.95
2019-06-08T21:35:00.847Z,72.93
2019-06-08T21:37:30.480Z,73.04
2019-06-08T21:40:03.651Z,73.19
2019-06-08T21:42:31.581Z,73.66
2019-06-08T21:45:02.904Z,74.23
2019-06-08T21:47:32.572Z,74.90
2019-06-08T21:50:02.162Z,75.05
2019-06-08T21:52:31.796Z,75.37
2019-06-08T21:55:01.439Z,75.30
2019-06-08T21:57:31.148Z,76.35
2019-06-08T22:00:21.647Z,76.42
2019-06-08T22:02:33.698Z,76.65
2019-06-08T22:05:04.846Z,76.69
2019-06-08T22:07:34.791Z,76.95
2019-06-08T22:10:07.575Z,76.67
2019-06-08T22:12:40.190Z,77.06
2019-06-08T22:15:10.098Z,77.16
2019-06-08T22:17:39.785Z,77.14
2019-06-08T22:20:09.730Z,77.18
2019-06-08T22:22:39.469Z,77.27
2019-06-08T22:25:09.120Z,77.15
2019-06-08T22:27:38.768Z,76.99
2019-06-08T22:30:11.630Z,76.66
2019-06-08T22:32:40.218Z,76.67
2019-06-08T22:35:10.754Z,76.49
2019-06-08T22:37:40.413Z,76.44
2019-06-08T22:40:10.353Z,76.23
2019-06-08T22:42:39.996Z,76.37
2019-06-08T22:45:09.957Z,76.46
2019-06-08T22:47:39.606Z,76.71
2019-06-08T22:50:11.646Z,76.79
2019-06-08T22:52:41.309Z,76.61
2019-06-08T22:55:11.326Z,76.74
2019-06-08T22:57:40.992Z,76.72
2019-06-08T23:00:16.632Z,76.70
2019-06-08T23:02:42.860Z,76.60
2019-06-08T23:05:12.505Z,76.76
2019-06-08T23:07:42.187Z,76.80
2019-06-08T23:10:12.150Z,76.73
2019-06-08T23:12:41.843Z,76.83
2019-06-08T23:15:11.700Z,76.81
2019-06-08T23:17:41.356Z,76.75
2019-06-08T23:20:11.599Z,76.78
2019-06-08T23:22:41.259Z,76.77
2019-06-08T23:25:11.501Z,76.63
2019-06-08T23:27:41.169Z,76.63
2019-06-08T23:30:12.253Z,76.65
2019-06-08T23:32:41.947Z,76.74
2019-06-08T23:35:12.286Z,76.78
2019-06-08T23:37:42.015Z,76.76
2019-06-08T23:40:12.053Z,76.81
2019-06-08T23:42:41.712Z,76.74
2019-06-08T23:45:11.769Z,76.63
2019-06-08T23:47:41.421Z,76.80
2019-06-08T23:50:11.731Z,76.77
2019-06-08T23:52:41.527Z,76.91
2019-06-08T23:55:12.051Z,76.99
2019-06-08T23:57:41.822Z,77.03
